sensor_id;sensor_type;location;lat;lon;timestamp;P1;durP1;ratioP1;P2;durP2;ratioP2
30647;SDS011;17683;53.360;9.736;2023-08-12T00:00:08;6.90;;;4.03;;
30647;SDS011;17683;53.360;9.736;2023-08-12T00:02:39;7.20;;;4.45;;
30647;SDS011;17683;53.360;9.736;2023-08-12T00:05:09;3.92;;;3.50;;
30647;SDS011;17683;53.360;9.736;2023-08-12T00:07:36;5.18;;;3.60;;
30647;SDS011;17683;53.360;9.736;2023-08-12T00:10:03;5.68;;;3.53;;
30647;SDS011;17683;53.360;9.736;2023-08-12T00:12:31;5.57;;;3.72;;
30647;SDS011;17683;53.360;9.736;2023-08-12T00:15:00;7.03;;;3.63;;
30647;SDS011;17683;53.360;9.736;2023-08-12T00:17:26;3.88;;;3.38;;
30647;SDS011;17683;53.360;9.736;2023-08-12T00:19:52;9.27;;;4.18;;
30647;SDS011;17683;53.360;9.736;2023-08-12T00:22:18;4.00;;;3.60;;
30647;SDS011;17683;53.360;9.736;2023-08-12T00:24:43;5.15;;;3.08;;
30647;SDS011;17683;53.360;9.736;2023-08-12T00:27:09;7.05;;;3.88;;
30647;SDS011;17683;53.360;9.736;2023-08-12T00:29:35;6.43;;;3.85;;
30647;SDS011;17683;53.360;9.736;2023-08-12T00:32:01;6.18;;;4.00;;
30647;SDS011;17683;53.360;9.736;2023-08-12T00:34:27;7.03;;;4.25;;
30647;SDS011;17683;53.360;9.736;2023-08-12T00:36:53;8.15;;;3.88;;
30647;SDS011;17683;53.360;9.736;2023-08-12T00:39:19;6.97;;;3.70;;
30647;SDS011;17683;53.360;9.736;2023-08-12T00:41:45;6.25;;;3.58;;
30647;SDS011;17683;53.360;9.736;2023-08-12T00:44:10;6.25;;;3.92;;
30647;SDS011;17683;53.360;9.736;2023-08-12T00:46:37;4.15;;;3.60;;
30647;SDS011;17683;53.360;9.736;2023-08-12T00:49:05;7.28;;;4.00;;
30647;SDS011;17683;53.360;9.736;2023-08-12T00:51:31;4.47;;;4.07;;
30647;SDS011;17683;53.360;9.736;2023-08-12T00:53:57;6.28;;;4.20;;
30647;SDS011;17683;53.360;9.736;2023-08-12T00:56:24;4.57;;;4.10;;
30647;SDS011;17683;53.360;9.736;2023-08-12T00:58:51;4.20;;;3.80;;
30647;SDS011;17683;53.360;9.736;2023-08-12T01:01:18;6.25;;;4.00;;
30647;SDS011;17683;53.360;9.736;2023-08-12T01:03:44;8.43;;;3.50;;
30647;SDS011;17683;53.360;9.736;2023-08-12T01:06:10;6.45;;;4.18;;
30647;SDS011;17683;53.360;9.736;2023-08-12T01:08:36;8.57;;;4.03;;
30647;SDS011;17683;53.360;9.736;2023-08-12T01:11:16;4.28;;;3.88;;
30647;SDS011;17683;53.360;9.736;2023-08-12T01:16:47;6.22;;;4.10;;
30647;SDS011;17683;53.360;9.736;2023-08-12T01:19:26;4.40;;;4.00;;
30647;SDS011;17683;53.360;9.736;2023-08-12T01:21:59;6.10;;;4.05;;
30647;SDS011;17683;53.360;9.736;2023-08-12T01:24:26;6.00;;;3.95;;
30647;SDS011;17683;53.360;9.736;2023-08-12T01:26:59;4.20;;;3.72;;
30647;SDS011;17683;53.360;9.736;2023-08-12T01:29:25;8.02;;;4.45;;
30647;SDS011;17683;53.360;9.736;2023-08-12T01:31:55;5.80;;;4.05;;
30647;SDS011;17683;53.360;9.736;2023-08-12T01:34:39;7.20;;;4.40;;
30647;SDS011;17683;53.360;9.736;2023-08-12T01:37:06;8.18;;;4.43;;
30647;SDS011;17683;53.360;9.736;2023-08-12T01:39:36;6.65;;;3.97;;
30647;SDS011;17683;53.360;9.736;2023-08-12T01:42:04;9.32;;;4.00;;
30647;SDS011;17683;53.360;9.736;2023-08-12T01:44:30;7.05;;;3.95;;
30647;SDS011;17683;53.360;9.736;2023-08-12T01:46:56;4.55;;;3.67;;
30647;SDS011;17683;53.360;9.736;2023-08-12T01:49:22;5.13;;;3.75;;
30647;SDS011;17683;53.360;9.736;2023-08-12T01:51:49;4.88;;;4.03;;
30647;SDS011;17683;53.360;9.736;2023-08-12T01:54:15;4.43;;;4.03;;
30647;SDS011;17683;53.360;9.736;2023-08-12T01:56:40;6.25;;;3.90;;
30647;SDS011;17683;53.360;9.736;2023-08-12T01:59:06;5.70;;;4.40;;
30647;SDS011;17683;53.360;9.736;2023-08-12T02:01:32;4.85;;;3.92;;
30647;SDS011;17683;53.360;9.736;2023-08-12T02:03:57;6.53;;;4.85;;
30647;SDS011;17683;53.360;9.736;2023-08-12T02:06:23;6.22;;;4.13;;
30647;SDS011;17683;53.360;9.736;2023-08-12T02:08:49;6.07;;;4.05;;
30647;SDS011;17683;53.360;9.736;2023-08-12T02:11:15;6.07;;;3.80;;
30647;SDS011;17683;53.360;9.736;2023-08-12T02:13:41;8.02;;;4.18;;
30647;SDS011;17683;53.360;9.736;2023-08-12T02:16:07;11.65;;;4.00;;
30647;SDS011;17683;53.360;9.736;2023-08-12T02:18:33;7.47;;;4.03;;
30647;SDS011;17683;53.360;9.736;2023-08-12T02:20:59;5.63;;;4.05;;
30647;SDS011;17683;53.360;9.736;2023-08-12T02:23:24;4.72;;;3.80;;
30647;SDS011;17683;53.360;9.736;2023-08-12T02:25:51;5.90;;;4.20;;
30647;SDS011;17683;53.360;9.736;2023-08-12T02:28:17;6.22;;;3.63;;
30647;SDS011;17683;53.360;9.736;2023-08-12T02:30:43;5.07;;;3.58;;
30647;SDS011;17683;53.360;9.736;2023-08-12T02:33:08;3.95;;;3.55;;
30647;SDS011;17683;53.360;9.736;2023-08-12T02:35:34;5.32;;;4.65;;
30647;SDS011;17683;53.360;9.736;2023-08-12T02:38:00;9.52;;;4.57;;
30647;SDS011;17683;53.360;9.736;2023-08-12T02:40:25;5.25;;;4.35;;
30647;SDS011;17683;53.360;9.736;2023-08-12T02:42:51;7.72;;;4.10;;
30647;SDS011;17683;53.360;9.736;2023-08-12T02:45:17;5.95;;;4.18;;
30647;SDS011;17683;53.360;9.736;2023-08-12T02:47:42;7.22;;;4.22;;
30647;SDS011;17683;53.360;9.736;2023-08-12T02:50:08;6.55;;;4.30;;
30647;SDS011;17683;53.360;9.736;2023-08-12T02:52:34;5.25;;;4.20;;
30647;SDS011;17683;53.360;9.736;2023-08-12T02:55:00;5.38;;;4.15;;
30647;SDS011;17683;53.360;9.736;2023-08-12T02:57:26;6.90;;;4.50;;
30647;SDS011;17683;53.360;9.736;2023-08-12T02:59:51;6.82;;;4.10;;
30647;SDS011;17683;53.360;9.736;2023-08-12T03:02:17;9.57;;;4.22;;
30647;SDS011;17683;53.360;9.736;2023-08-12T03:04:43;7.32;;;3.63;;
30647;SDS011;17683;53.360;9.736;2023-08-12T03:07:09;6.35;;;4.15;;
30647;SDS011;17683;53.360;9.736;2023-08-12T03:09:34;6.43;;;4.18;;
30647;SDS011;17683;53.360;9.736;2023-08-12T03:12:00;4.38;;;3.75;;
30647;SDS011;17683;53.360;9.736;2023-08-12T03:14:29;4.45;;;4.03;;
30647;SDS011;17683;53.360;9.736;2023-08-12T03:16:55;6.75;;;4.45;;
30647;SDS011;17683;53.360;9.736;2023-08-12T03:19:20;4.70;;;4.20;;
30647;SDS011;17683;53.360;9.736;2023-08-12T03:21:46;10.13;;;4.93;;
30647;SDS011;17683;53.360;9.736;2023-08-12T03:24:12;5.38;;;4.32;;
30647;SDS011;17683;53.360;9.736;2023-08-12T03:26:37;5.13;;;4.47;;
30647;SDS011;17683;53.360;9.736;2023-08-12T03:29:03;8.82;;;3.95;;
30647;SDS011;17683;53.360;9.736;2023-08-12T03:31:29;5.78;;;4.22;;
30647;SDS011;17683;53.360;9.736;2023-08-12T03:33:54;6.20;;;4.70;;
30647;SDS011;17683;53.360;9.736;2023-08-12T03:36:20;6.95;;;3.78;;
30647;SDS011;17683;53.360;9.736;2023-08-12T03:38:46;6.13;;;4.43;;
30647;SDS011;17683;53.360;9.736;2023-08-12T03:41:11;4.45;;;4.03;;
30647;SDS011;17683;53.360;9.736;2023-08-12T03:43:37;7.60;;;4.55;;
30647;SDS011;17683;53.360;9.736;2023-08-12T03:46:03;8.35;;;4.55;;
30647;SDS011;17683;53.360;9.736;2023-08-12T03:48:30;7.38;;;4.30;;
30647;SDS011;17683;53.360;9.736;2023-08-12T03:50:55;7.95;;;5.03;;
30647;SDS011;17683;53.360;9.736;2023-08-12T03:53:21;6.57;;;4.25;;
30647;SDS011;17683;53.360;9.736;2023-08-12T03:55:46;6.05;;;3.67;;
30647;SDS011;17683;53.360;9.736;2023-08-12T03:58:12;5.15;;;4.32;;
30647;SDS011;17683;53.360;9.736;2023-08-12T04:00:41;5.25;;;4.45;;
30647;SDS011;17683;53.360;9.736;2023-08-12T04:03:10;5.07;;;4.35;;
30647;SDS011;17683;53.360;9.736;2023-08-12T04:05:36;5.97;;;4.18;;
30647;SDS011;17683;53.360;9.736;2023-08-12T04:08:02;5.22;;;4.68;;
30647;SDS011;17683;53.360;9.736;2023-08-12T04:10:27;6.57;;;3.90;;
30647;SDS011;17683;53.360;9.736;2023-08-12T04:12:53;4.63;;;4.22;;
30647;SDS011;17683;53.360;9.736;2023-08-12T04:15:19;6.40;;;4.28;;
30647;SDS011;17683;53.360;9.736;2023-08-12T04:17:44;5.72;;;4.30;;
30647;SDS011;17683;53.360;9.736;2023-08-12T04:20:10;4.90;;;4.40;;
30647;SDS011;17683;53.360;9.736;2023-08-12T04:22:36;5.05;;;4.47;;
30647;SDS011;17683;53.360;9.736;2023-08-12T04:25:02;7.38;;;4.82;;
30647;SDS011;17683;53.360;9.736;2023-08-12T04:27:28;7.80;;;4.38;;
30647;SDS011;17683;53.360;9.736;2023-08-12T04:29:53;6.32;;;4.13;;
30647;SDS011;17683;53.360;9.736;2023-08-12T04:32:19;7.93;;;4.13;;
30647;SDS011;17683;53.360;9.736;2023-08-12T04:34:45;5.30;;;4.25;;
30647;SDS011;17683;53.360;9.736;2023-08-12T04:37:11;6.38;;;4.57;;
30647;SDS011;17683;53.360;9.736;2023-08-12T04:39:37;4.30;;;3.90;;
30647;SDS011;17683;53.360;9.736;2023-08-12T04:42:03;4.68;;;4.10;;
30647;SDS011;17683;53.360;9.736;2023-08-12T04:44:28;7.65;;;3.92;;
30647;SDS011;17683;53.360;9.736;2023-08-12T04:46:54;6.60;;;3.85;;
30647;SDS011;17683;53.360;9.736;2023-08-12T04:49:20;4.32;;;3.92;;
30647;SDS011;17683;53.360;9.736;2023-08-12T04:51:46;9.02;;;4.15;;
30647;SDS011;17683;53.360;9.736;2023-08-12T04:54:11;5.38;;;4.32;;
30647;SDS011;17683;53.360;9.736;2023-08-12T04:56:37;6.60;;;4.50;;
30647;SDS011;17683;53.360;9.736;2023-08-12T04:59:03;4.82;;;4.05;;
30647;SDS011;17683;53.360;9.736;2023-08-12T05:01:29;5.63;;;3.88;;
30647;SDS011;17683;53.360;9.736;2023-08-12T05:03:54;5.75;;;3.70;;
30647;SDS011;17683;53.360;9.736;2023-08-12T05:06:20;5.88;;;4.25;;
30647;SDS011;17683;53.360;9.736;2023-08-12T05:08:46;4.60;;;3.97;;
30647;SDS011;17683;53.360;9.736;2023-08-12T05:11:12;4.60;;;3.97;;
30647;SDS011;17683;53.360;9.736;2023-08-12T05:13:37;4.57;;;4.13;;
30647;SDS011;17683;53.360;9.736;2023-08-12T05:16:03;5.82;;;4.22;;
30647;SDS011;17683;53.360;9.736;2023-08-12T05:18:29;5.63;;;3.97;;
30647;SDS011;17683;53.360;9.736;2023-08-12T05:20:54;4.20;;;3.80;;
30647;SDS011;17683;53.360;9.736;2023-08-12T05:23:20;11.38;;;4.10;;
30647;SDS011;17683;53.360;9.736;2023-08-12T05:25:46;5.43;;;4.03;;
30647;SDS011;17683;53.360;9.736;2023-08-12T05:28:12;9.45;;;3.95;;
30647;SDS011;17683;53.360;9.736;2023-08-12T05:30:38;8.00;;;4.97;;
30647;SDS011;17683;53.360;9.736;2023-08-12T05:33:04;10.20;;;5.20;;
30647;SDS011;17683;53.360;9.736;2023-08-12T05:35:33;7.00;;;4.80;;
30647;SDS011;17683;53.360;9.736;2023-08-12T05:37:59;6.43;;;5.03;;
30647;SDS011;17683;53.360;9.736;2023-08-12T05:40:25;6.95;;;4.60;;
30647;SDS011;17683;53.360;9.736;2023-08-12T05:42:51;6.25;;;4.10;;
30647;SDS011;17683;53.360;9.736;2023-08-12T05:45:17;5.80;;;4.13;;
30647;SDS011;17683;53.360;9.736;2023-08-12T05:47:42;6.93;;;5.00;;
30647;SDS011;17683;53.360;9.736;2023-08-12T05:50:08;5.55;;;4.60;;
30647;SDS011;17683;53.360;9.736;2023-08-12T05:52:34;8.90;;;5.60;;
30647;SDS011;17683;53.360;9.736;2023-08-12T05:55:00;7.15;;;5.20;;
30647;SDS011;17683;53.360;9.736;2023-08-12T05:57:25;5.05;;;4.50;;
30647;SDS011;17683;53.360;9.736;2023-08-12T05:59:51;8.57;;;5.00;;
30647;SDS011;17683;53.360;9.736;2023-08-12T06:02:17;6.32;;;4.75;;
30647;SDS011;17683;53.360;9.736;2023-08-12T06:04:43;7.90;;;5.30;;
30647;SDS011;17683;53.360;9.736;2023-08-12T06:07:09;8.32;;;5.20;;
30647;SDS011;17683;53.360;9.736;2023-08-12T06:09:35;8.10;;;5.32;;
30647;SDS011;17683;53.360;9.736;2023-08-12T06:12:00;11.98;;;5.38;;
30647;SDS011;17683;53.360;9.736;2023-08-12T06:14:26;8.88;;;5.10;;
30647;SDS011;17683;53.360;9.736;2023-08-12T06:16:52;7.35;;;5.68;;
30647;SDS011;17683;53.360;9.736;2023-08-12T06:19:17;7.75;;;5.60;;
30647;SDS011;17683;53.360;9.736;2023-08-12T06:21:43;7.70;;;6.00;;
30647;SDS011;17683;53.360;9.736;2023-08-12T06:24:12;9.23;;;7.65;;
30647;SDS011;17683;53.360;9.736;2023-08-12T06:26:37;10.60;;;7.47;;
30647;SDS011;17683;53.360;9.736;2023-08-12T06:29:03;10.52;;;7.63;;
30647;SDS011;17683;53.360;9.736;2023-08-12T06:31:29;11.05;;;7.20;;
30647;SDS011;17683;53.360;9.736;2023-08-12T06:33:54;9.68;;;7.70;;
30647;SDS011;17683;53.360;9.736;2023-08-12T06:36:20;9.70;;;8.18;;
30647;SDS011;17683;53.360;9.736;2023-08-12T06:38:46;9.10;;;8.23;;
30647;SDS011;17683;53.360;9.736;2023-08-12T06:41:11;11.88;;;8.38;;
30647;SDS011;17683;53.360;9.736;2023-08-12T06:43:37;12.60;;;9.65;;
30647;SDS011;17683;53.360;9.736;2023-08-12T06:46:02;11.88;;;9.70;;
30647;SDS011;17683;53.360;9.736;2023-08-12T06:48:28;18.35;;;11.18;;
30647;SDS011;17683;53.360;9.736;2023-08-12T06:50:54;13.10;;;8.98;;
30647;SDS011;17683;53.360;9.736;2023-08-12T06:53:21;8.50;;;7.35;;
30647;SDS011;17683;53.360;9.736;2023-08-12T06:55:46;17.02;;;12.45;;
30647;SDS011;17683;53.360;9.736;2023-08-12T06:58:13;13.32;;;10.52;;
30647;SDS011;17683;53.360;9.736;2023-08-12T07:00:42;14.00;;;9.68;;
30647;SDS011;17683;53.360;9.736;2023-08-12T07:03:08;17.08;;;12.32;;
30647;SDS011;17683;53.360;9.736;2023-08-12T07:05:34;14.30;;;12.23;;
30647;SDS011;17683;53.360;9.736;2023-08-12T07:07:59;16.52;;;11.18;;
30647;SDS011;17683;53.360;9.736;2023-08-12T07:10:25;22.08;;;11.40;;
30647;SDS011;17683;53.360;9.736;2023-08-12T07:12:51;13.85;;;11.10;;
30647;SDS011;17683;53.360;9.736;2023-08-12T07:15:16;21.63;;;13.55;;
30647;SDS011;17683;53.360;9.736;2023-08-12T07:17:42;16.77;;;12.02;;
30647;SDS011;17683;53.360;9.736;2023-08-12T07:20:08;14.40;;;10.60;;
30647;SDS011;17683;53.360;9.736;2023-08-12T07:22:33;14.65;;;11.35;;
30647;SDS011;17683;53.360;9.736;2023-08-12T07:24:59;14.57;;;10.82;;
30647;SDS011;17683;53.360;9.736;2023-08-12T07:27:28;12.15;;;9.95;;
30647;SDS011;17683;53.360;9.736;2023-08-12T07:29:54;13.15;;;9.98;;
30647;SDS011;17683;53.360;9.736;2023-08-12T07:32:19;20.48;;;11.27;;
30647;SDS011;17683;53.360;9.736;2023-08-12T07:34:46;15.15;;;10.93;;
30647;SDS011;17683;53.360;9.736;2023-08-12T07:37:11;18.40;;;11.95;;
30647;SDS011;17683;53.360;9.736;2023-08-12T07:39:37;16.00;;;12.32;;
30647;SDS011;17683;53.360;9.736;2023-08-12T07:42:03;13.27;;;11.77;;
30647;SDS011;17683;53.360;9.736;2023-08-12T07:44:29;22.77;;;13.55;;
30647;SDS011;17683;53.360;9.736;2023-08-12T07:46:55;17.65;;;12.45;;
30647;SDS011;17683;53.360;9.736;2023-08-12T07:49:21;16.73;;;12.95;;
30647;SDS011;17683;53.360;9.736;2023-08-12T07:51:47;18.40;;;12.15;;
30647;SDS011;17683;53.360;9.736;2023-08-12T07:54:13;14.95;;;11.02;;
30647;SDS011;17683;53.360;9.736;2023-08-12T07:56:38;23.70;;;14.05;;
30647;SDS011;17683;53.360;9.736;2023-08-12T07:59:04;22.65;;;15.77;;
30647;SDS011;17683;53.360;9.736;2023-08-12T08:01:30;17.25;;;12.60;;
30647;SDS011;17683;53.360;9.736;2023-08-12T08:03:55;18.52;;;12.13;;
30647;SDS011;17683;53.360;9.736;2023-08-12T08:06:22;19.90;;;14.73;;
30647;SDS011;17683;53.360;9.736;2023-08-12T08:08:48;16.17;;;12.60;;
30647;SDS011;17683;53.360;9.736;2023-08-12T08:11:14;16.27;;;12.55;;
30647;SDS011;17683;53.360;9.736;2023-08-12T08:13:40;15.65;;;12.25;;
30647;SDS011;17683;53.360;9.736;2023-08-12T08:16:06;16.65;;;12.43;;
30647;SDS011;17683;53.360;9.736;2023-08-12T08:18:31;23.00;;;13.27;;
30647;SDS011;17683;53.360;9.736;2023-08-12T08:20:57;18.25;;;13.43;;
30647;SDS011;17683;53.360;9.736;2023-08-12T08:23:23;13.73;;;11.20;;
30647;SDS011;17683;53.360;9.736;2023-08-12T08:25:49;18.80;;;14.60;;
30647;SDS011;17683;53.360;9.736;2023-08-12T08:28:14;17.30;;;14.15;;
30647;SDS011;17683;53.360;9.736;2023-08-12T08:30:40;18.50;;;14.18;;
30647;SDS011;17683;53.360;9.736;2023-08-12T08:33:06;17.17;;;13.70;;
30647;SDS011;17683;53.360;9.736;2023-08-12T08:35:32;19.00;;;11.98;;
30647;SDS011;17683;53.360;9.736;2023-08-12T08:37:57;20.48;;;11.20;;
30647;SDS011;17683;53.360;9.736;2023-08-12T08:40:23;12.68;;;10.80;;
30647;SDS011;17683;53.360;9.736;2023-08-12T08:42:51;22.92;;;15.02;;
30647;SDS011;17683;53.360;9.736;2023-08-12T08:45:18;16.88;;;11.35;;
30647;SDS011;17683;53.360;9.736;2023-08-12T08:47:46;14.82;;;10.10;;
30647;SDS011;17683;53.360;9.736;2023-08-12T08:50:13;14.88;;;11.32;;
30647;SDS011;17683;53.360;9.736;2023-08-12T08:52:40;12.98;;;10.45;;
30647;SDS011;17683;53.360;9.736;2023-08-12T08:55:08;11.80;;;8.85;;
30647;SDS011;17683;53.360;9.736;2023-08-12T08:57:34;13.52;;;9.07;;
30647;SDS011;17683;53.360;9.736;2023-08-12T09:00:02;11.40;;;8.55;;
30647;SDS011;17683;53.360;9.736;2023-08-12T09:02:32;9.27;;;7.43;;
30647;SDS011;17683;53.360;9.736;2023-08-12T09:04:59;14.75;;;10.05;;
30647;SDS011;17683;53.360;9.736;2023-08-12T09:07:27;13.13;;;8.98;;
30647;SDS011;17683;53.360;9.736;2023-08-12T09:09:54;10.45;;;7.68;;
30647;SDS011;17683;53.360;9.736;2023-08-12T09:12:23;7.80;;;7.03;;
30647;SDS011;17683;53.360;9.736;2023-08-12T09:14:49;8.00;;;6.03;;
30647;SDS011;17683;53.360;9.736;2023-08-12T09:17:15;11.30;;;8.00;;
30647;SDS011;17683;53.360;9.736;2023-08-12T09:19:41;13.40;;;7.47;;
30647;SDS011;17683;53.360;9.736;2023-08-12T09:22:07;10.13;;;7.15;;
30647;SDS011;17683;53.360;9.736;2023-08-12T09:24:36;8.38;;;7.07;;
30647;SDS011;17683;53.360;9.736;2023-08-12T09:27:02;10.05;;;8.13;;
30647;SDS011;17683;53.360;9.736;2023-08-12T09:29:32;11.23;;;7.38;;
30647;SDS011;17683;53.360;9.736;2023-08-12T09:34:47;12.43;;;8.38;;
30647;SDS011;17683;53.360;9.736;2023-08-12T09:37:16;10.25;;;7.88;;
30647;SDS011;17683;53.360;9.736;2023-08-12T09:39:46;11.38;;;7.72;;
30647;SDS011;17683;53.360;9.736;2023-08-12T09:42:13;10.35;;;7.03;;
30647;SDS011;17683;53.360;9.736;2023-08-12T09:44:41;9.77;;;7.15;;
30647;SDS011;17683;53.360;9.736;2023-08-12T09:47:06;9.48;;;7.07;;
30647;SDS011;17683;53.360;9.736;2023-08-12T09:49:36;9.43;;;6.70;;
30647;SDS011;17683;53.360;9.736;2023-08-12T09:52:06;12.23;;;8.13;;
30647;SDS011;17683;53.360;9.736;2023-08-12T09:54:33;10.98;;;7.78;;
30647;SDS011;17683;53.360;9.736;2023-08-12T09:57:00;10.25;;;7.40;;
30647;SDS011;17683;53.360;9.736;2023-08-12T09:59:30;10.00;;;7.90;;
30647;SDS011;17683;53.360;9.736;2023-08-12T10:02:03;11.07;;;7.20;;
30647;SDS011;17683;53.360;9.736;2023-08-12T10:04:37;13.00;;;7.53;;
30647;SDS011;17683;53.360;9.736;2023-08-12T10:07:10;8.57;;;7.65;;
30647;SDS011;17683;53.360;9.736;2023-08-12T10:09:38;13.20;;;7.53;;
30647;SDS011;17683;53.360;9.736;2023-08-12T10:12:04;9.60;;;7.97;;
30647;SDS011;17683;53.360;9.736;2023-08-12T10:14:32;8.02;;;6.82;;
30647;SDS011;17683;53.360;9.736;2023-08-12T10:16:58;9.90;;;7.40;;
30647;SDS011;17683;53.360;9.736;2023-08-12T10:19:24;10.38;;;6.53;;
30647;SDS011;17683;53.360;9.736;2023-08-12T10:21:54;6.93;;;6.15;;
30647;SDS011;17683;53.360;9.736;2023-08-12T10:24:23;9.07;;;6.32;;
30647;SDS011;17683;53.360;9.736;2023-08-12T10:26:51;8.30;;;5.80;;
30647;SDS011;17683;53.360;9.736;2023-08-12T10:29:17;10.05;;;6.50;;
30647;SDS011;17683;53.360;9.736;2023-08-12T10:31:44;9.07;;;5.95;;
30647;SDS011;17683;53.360;9.736;2023-08-12T10:34:23;6.82;;;5.07;;
30647;SDS011;17683;53.360;9.736;2023-08-12T10:36:54;10.75;;;6.60;;
30647;SDS011;17683;53.360;9.736;2023-08-12T10:39:24;7.93;;;6.53;;
30647;SDS011;17683;53.360;9.736;2023-08-12T10:41:56;8.50;;;6.35;;
30647;SDS011;17683;53.360;9.736;2023-08-12T10:44:26;8.75;;;6.57;;
30647;SDS011;17683;53.360;9.736;2023-08-12T10:47:09;7.05;;;5.85;;
30647;SDS011;17683;53.360;9.736;2023-08-12T10:49:42;10.32;;;7.78;;
30647;SDS011;17683;53.360;9.736;2023-08-12T10:55:15;6.43;;;5.53;;
30647;SDS011;17683;53.360;9.736;2023-08-12T10:57:55;6.95;;;5.53;;
30647;SDS011;17683;53.360;9.736;2023-08-12T11:00:24;10.65;;;7.35;;
30647;SDS011;17683;53.360;9.736;2023-08-12T11:02:54;7.88;;;6.07;;
30647;SDS011;17683;53.360;9.736;2023-08-12T11:05:21;6.32;;;5.60;;
30647;SDS011;17683;53.360;9.736;2023-08-12T11:07:49;6.57;;;5.10;;
30647;SDS011;17683;53.360;9.736;2023-08-12T11:10:24;6.07;;;5.55;;
30647;SDS011;17683;53.360;9.736;2023-08-12T11:15:17;6.32;;;5.70;;
30647;SDS011;17683;53.360;9.736;2023-08-12T11:17:45;10.95;;;6.00;;
30647;SDS011;17683;53.360;9.736;2023-08-12T11:20:12;7.95;;;6.72;;
30647;SDS011;17683;53.360;9.736;2023-08-12T11:22:39;7.22;;;6.50;;
30647;SDS011;17683;53.360;9.736;2023-08-12T11:25:15;9.38;;;7.03;;
30647;SDS011;17683;53.360;9.736;2023-08-12T11:27:41;8.10;;;7.22;;
30647;SDS011;17683;53.360;9.736;2023-08-12T11:30:17;10.18;;;6.68;;
30647;SDS011;17683;53.360;9.736;2023-08-12T11:32:46;7.68;;;6.90;;
30647;SDS011;17683;53.360;9.736;2023-08-12T11:35:14;10.82;;;8.07;;
30647;SDS011;17683;53.360;9.736;2023-08-12T11:37:43;10.15;;;7.13;;
30647;SDS011;17683;53.360;9.736;2023-08-12T11:40:11;10.55;;;6.93;;
30647;SDS011;17683;53.360;9.736;2023-08-12T11:42:40;8.90;;;7.47;;
30647;SDS011;17683;53.360;9.736;2023-08-12T11:45:07;7.95;;;7.15;;
30647;SDS011;17683;53.360;9.736;2023-08-12T11:47:34;9.38;;;6.78;;
30647;SDS011;17683;53.360;9.736;2023-08-12T11:50:03;10.10;;;7.22;;
30647;SDS011;17683;53.360;9.736;2023-08-12T11:52:30;8.13;;;7.32;;
30647;SDS011;17683;53.360;9.736;2023-08-12T11:54:56;11.23;;;8.52;;
30647;SDS011;17683;53.360;9.736;2023-08-12T11:57:22;10.85;;;8.23;;
30647;SDS011;17683;53.360;9.736;2023-08-12T11:59:49;11.20;;;8.02;;
30647;SDS011;17683;53.360;9.736;2023-08-12T12:02:15;14.80;;;9.32;;
30647;SDS011;17683;53.360;9.736;2023-08-12T12:04:44;11.65;;;8.48;;
30647;SDS011;17683;53.360;9.736;2023-08-12T12:07:25;9.85;;;7.97;;
30647;SDS011;17683;53.360;9.736;2023-08-12T12:09:52;10.55;;;7.53;;
30647;SDS011;17683;53.360;9.736;2023-08-12T12:12:25;10.40;;;8.35;;
30647;SDS011;17683;53.360;9.736;2023-08-12T12:14:54;11.75;;;8.60;;
30647;SDS011;17683;53.360;9.736;2023-08-12T12:17:21;8.60;;;7.15;;
30647;SDS011;17683;53.360;9.736;2023-08-12T12:19:54;8.10;;;6.97;;
30647;SDS011;17683;53.360;9.736;2023-08-12T12:22:25;10.23;;;7.70;;
30647;SDS011;17683;53.360;9.736;2023-08-12T12:24:54;12.07;;;7.80;;
30647;SDS011;17683;53.360;9.736;2023-08-12T12:27:22;9.63;;;7.70;;
30647;SDS011;17683;53.360;9.736;2023-08-12T12:29:49;8.55;;;7.38;;
30647;SDS011;17683;53.360;9.736;2023-08-12T12:32:17;9.45;;;7.63;;
30647;SDS011;17683;53.360;9.736;2023-08-12T12:34:44;10.68;;;7.90;;
30647;SDS011;17683;53.360;9.736;2023-08-12T12:37:10;9.05;;;7.38;;
30647;SDS011;17683;53.360;9.736;2023-08-12T12:39:35;9.30;;;6.90;;
30647;SDS011;17683;53.360;9.736;2023-08-12T12:42:01;7.38;;;6.63;;
30647;SDS011;17683;53.360;9.736;2023-08-12T12:44:27;7.68;;;6.68;;
30647;SDS011;17683;53.360;9.736;2023-08-12T12:46:52;8.45;;;7.25;;
30647;SDS011;17683;53.360;9.736;2023-08-12T12:49:19;10.40;;;8.10;;
30647;SDS011;17683;53.360;9.736;2023-08-12T12:51:45;8.93;;;7.63;;
30647;SDS011;17683;53.360;9.736;2023-08-12T12:54:11;9.48;;;7.53;;
30647;SDS011;17683;53.360;9.736;2023-08-12T12:56:36;9.93;;;8.05;;
30647;SDS011;17683;53.360;9.736;2023-08-12T12:59:02;10.10;;;9.10;;
30647;SDS011;17683;53.360;9.736;2023-08-12T13:01:28;9.90;;;8.23;;
30647;SDS011;17683;53.360;9.736;2023-08-12T13:03:53;10.50;;;7.30;;
30647;SDS011;17683;53.360;9.736;2023-08-12T13:06:19;10.15;;;8.15;;
30647;SDS011;17683;53.360;9.736;2023-08-12T13:08:45;8.73;;;7.80;;
30647;SDS011;17683;53.360;9.736;2023-08-12T13:11:10;11.55;;;8.90;;
30647;SDS011;17683;53.360;9.736;2023-08-12T13:13:36;9.77;;;8.10;;
30647;SDS011;17683;53.360;9.736;2023-08-12T13:16:02;12.68;;;9.75;;
30647;SDS011;17683;53.360;9.736;2023-08-12T13:18:27;9.43;;;8.40;;
30647;SDS011;17683;53.360;9.736;2023-08-12T13:20:53;9.80;;;8.15;;
30647;SDS011;17683;53.360;9.736;2023-08-12T13:23:19;9.48;;;8.45;;
30647;SDS011;17683;53.360;9.736;2023-08-12T13:25:44;11.40;;;8.93;;
30647;SDS011;17683;53.360;9.736;2023-08-12T13:28:10;10.18;;;8.48;;
30647;SDS011;17683;53.360;9.736;2023-08-12T13:30:36;9.57;;;8.32;;
30647;SDS011;17683;53.360;9.736;2023-08-12T13:33:02;10.00;;;8.98;;
30647;SDS011;17683;53.360;9.736;2023-08-12T13:35:28;11.30;;;8.15;;
30647;SDS011;17683;53.360;9.736;2023-08-12T13:37:54;10.70;;;9.60;;
30647;SDS011;17683;53.360;9.736;2023-08-12T13:40:20;9.93;;;8.95;;
30647;SDS011;17683;53.360;9.736;2023-08-12T13:42:46;9.23;;;7.82;;
30647;SDS011;17683;53.360;9.736;2023-08-12T13:45:12;12.70;;;7.07;;
30647;SDS011;17683;53.360;9.736;2023-08-12T13:47:38;10.52;;;8.25;;
30647;SDS011;17683;53.360;9.736;2023-08-12T13:50:04;14.40;;;10.93;;
30647;SDS011;17683;53.360;9.736;2023-08-12T13:52:31;10.38;;;8.75;;
30647;SDS011;17683;53.360;9.736;2023-08-12T13:54:56;9.27;;;7.50;;
30647;SDS011;17683;53.360;9.736;2023-08-12T13:57:22;9.38;;;7.03;;
30647;SDS011;17683;53.360;9.736;2023-08-12T13:59:48;11.27;;;8.98;;
30647;SDS011;17683;53.360;9.736;2023-08-12T14:02:14;11.00;;;9.90;;
30647;SDS011;17683;53.360;9.736;2023-08-12T14:04:40;10.73;;;9.55;;
30647;SDS011;17683;53.360;9.736;2023-08-12T14:07:06;11.13;;;8.40;;
30647;SDS011;17683;53.360;9.736;2023-08-12T14:09:33;14.40;;;8.50;;
30647;SDS011;17683;53.360;9.736;2023-08-12T14:11:59;10.88;;;8.13;;
30647;SDS011;17683;53.360;9.736;2023-08-12T14:14:25;11.45;;;9.32;;
30647;SDS011;17683;53.360;9.736;2023-08-12T14:16:52;9.73;;;8.73;;
30647;SDS011;17683;53.360;9.736;2023-08-12T14:19:19;9.50;;;8.60;;
30647;SDS011;17683;53.360;9.736;2023-08-12T14:21:44;9.40;;;7.78;;
30647;SDS011;17683;53.360;9.736;2023-08-12T14:24:10;9.93;;;8.90;;
30647;SDS011;17683;53.360;9.736;2023-08-12T14:26:38;9.50;;;8.57;;
30647;SDS011;17683;53.360;9.736;2023-08-12T14:29:04;18.13;;;11.20;;
30647;SDS011;17683;53.360;9.736;2023-08-12T14:31:29;11.98;;;8.82;;
30647;SDS011;17683;53.360;9.736;2023-08-12T14:33:55;13.82;;;9.85;;
30647;SDS011;17683;53.360;9.736;2023-08-12T14:36:21;12.27;;;8.65;;
30647;SDS011;17683;53.360;9.736;2023-08-12T14:38:47;13.35;;;11.43;;
30647;SDS011;17683;53.360;9.736;2023-08-12T14:41:12;10.85;;;9.80;;
30647;SDS011;17683;53.360;9.736;2023-08-12T14:43:38;11.57;;;10.35;;
30647;SDS011;17683;53.360;9.736;2023-08-12T14:46:03;13.07;;;11.77;;
30647;SDS011;17683;53.360;9.736;2023-08-12T14:48:31;11.57;;;9.52;;